Airfield :
LOGIN :

Register | Disclaimer

   EN    FR    IT 

 










Legend :    VFR   Marginal VFR   IFR   Intensive IFR   Very Intensive IFR
Visi :
Ceiling :
>= 8 km
>= 3000ft
5 to 8 km
1000 to 3000 ft
1500m to 5 km
500 to 1000 ft
800 to 1500m
200 to 500 ft
< 800m
< 200 ft
Symbols :   Thunderstorms  Fog  Heavy snow  Heavy precipitations  Wind > 20 kt
SIGMETs :     Misc.  Thunderstorms  Icing  Turbulence  Mountain Waves  Volcanic Ashes






- Airport Elevation : 390 ft
- IATA code : NQY


EGHQ - Newquay

CURRENT METAR :
  • 100450Z AUTO 19009KT 9999 BKN015/// 10/08 Q0993 RERA

EXPIRED METARs :
  • 100420Z AUTO 19011KT 9999 +RA SCT014/// BKN048/// 10/09 Q0993
  • 100350Z AUTO 20012KT 9999 FEW032/// 09/08 Q0993 REDZ
  • 100320Z AUTO 20011KT 9999 SCT012/// BKN030/// 10/08 Q0993 REDZ
  • 100250Z AUTO 19010KT 9999 BKN014/// 10/08 Q0993
  • 100220Z AUTO 20011KT 9999 BKN013/// 10/09 Q0993 REDZ

TAF TAF EGHQ
Valid from the 10 at 03:00 until the 10 at 12:00 UTC


100156Z 1003/1012 20012KT 9999 SCT020
TEMPO 1003/1012 7000 SHRA
TEMPO 1003/1005 BKN012
BECMG 1005/1008 23018G30KT
PROB30
TEMPO 1005/1012 4000 +SHRA BKN014CB



MET'MAP, your aeronautical weather chart ! - Copyright ORBIFLY December 2007 - Disclaimer

ORBIFLY MET'MAP TEAM :

Programming & Development : Alexandra Zaïnal
Concept & original design : Baudouin d'Aumeries
Assistance for programming : Marc-Olivier Méhu
Technical & hardware support : Manuel Goepfert

Contact : metmap@orbifly.com




SOURCES & CREDITS :

   NOAA